Terminal Aerodrome Forecast
Issued by NWS

Home | Current Version | Previous Version | Text Only | Print | Product List | Glossary On
Versions: 1 2 3 4 5 6 7 8 9 10 11 12 13 14 15 16 17
000
FTUS46 KMTR 250528
TAFSNS
TAF
KSNS 250528Z 2506/2606 30009KT P6SM OVC004
     FM250800 VRB03KT 6SM BR OVC003
      TEMPO 2511/2515 1/2SM FG VV001
     FM251700 29006KT P6SM SKC
     FM252000 28015KT P6SM SKC
     FM260300 29009G15KT P6SM OVC007=

USA.gov is the U.S. government's official web portal to all federal, state and local government web resources and services.